createdAt,value
2022-10-14T00:00:44.026Z,17.05
2022-10-14T00:03:10.853Z,16.69
2022-10-14T00:05:40.779Z,15.96
2022-10-14T00:08:09.121Z,17.18
2022-10-14T00:10:39.966Z,17.36
2022-10-14T00:13:07.177Z,17.13
2022-10-14T00:15:38.963Z,17.52
2022-10-14T00:18:06.838Z,17.53
2022-10-14T00:20:34.005Z,17.29
2022-10-14T00:23:00.829Z,17.08
2022-10-14T00:25:28.380Z,17.02
2022-10-14T00:27:55.618Z,16.02
2022-10-14T00:30:22.872Z,16.52
2022-10-14T00:32:49.732Z,16.66
2022-10-14T00:35:16.808Z,16.34
2022-10-14T00:37:43.657Z,16.05
2022-10-14T00:40:11.045Z,16.30
2022-10-14T00:42:37.901Z,16.24
2022-10-14T00:45:09.970Z,16.66
2022-10-14T00:47:36.902Z,15.73
2022-10-14T00:50:04.107Z,16.60
2022-10-14T00:52:31.216Z,16.76
2022-10-14T00:55:04.431Z,16.91
2022-10-14T00:57:31.985Z,16.66
2022-10-14T01:00:05.032Z,17.28
2022-10-14T01:02:31.914Z,16.75
2022-10-14T01:05:00.142Z,17.09
2022-10-14T01:07:35.940Z,16.54
2022-10-14T01:10:09.822Z,16.66
2022-10-14T01:13:02.193Z,17.17
2022-10-14T01:15:44.233Z,16.68
2022-10-14T01:18:20.477Z,16.83
2022-10-14T01:20:56.446Z,16.41
2022-10-14T01:23:45.091Z,16.33
2022-10-14T01:26:20.712Z,15.75
2022-10-14T01:28:56.238Z,15.96
2022-10-14T01:31:26.017Z,16.41
2022-10-14T01:33:56.912Z,16.63
2022-10-14T01:36:27.461Z,16.55
2022-10-14T01:38:58.932Z,16.51
2022-10-14T01:41:29.364Z,17.10
2022-10-14T01:43:58.750Z,17.10
2022-10-14T01:46:27.482Z,17.02
2022-10-14T01:49:03.355Z,16.55
2022-10-14T01:51:41.586Z,16.06
2022-10-14T01:54:15.763Z,16.12
2022-10-14T01:56:45.746Z,16.16
2022-10-14T01:59:13.658Z,16.89
2022-10-14T02:01:40.681Z,16.97
2022-10-14T02:04:21.157Z,17.09
2022-10-14T02:07:12.302Z,16.75
2022-10-14T02:09:54.739Z,17.06
2022-10-14T02:12:46.078Z,17.01
2022-10-14T02:15:21.344Z,17.18
2022-10-14T02:18:09.665Z,16.74
2022-10-14T02:21:03.898Z,16.63
2022-10-14T02:23:33.605Z,16.09
2022-10-14T02:26:00.623Z,15.61
2022-10-14T02:28:28.239Z,15.51
2022-10-14T02:31:00.991Z,17.13
2022-10-14T02:33:33.416Z,16.18
2022-10-14T02:36:02.127Z,15.99
2022-10-14T02:38:30.554Z,16.02
2022-10-14T02:40:57.675Z,16.04
2022-10-14T02:43:24.581Z,15.43
2022-10-14T02:45:57.569Z,15.29
2022-10-14T02:48:24.664Z,15.85
2022-10-14T02:50:51.543Z,16.10
2022-10-14T02:53:18.405Z,15.96
2022-10-14T02:55:45.257Z,15.82
2022-10-14T02:58:12.130Z,16.15
2022-10-14T03:00:38.950Z,16.50
2022-10-14T03:03:05.833Z,16.60
2022-10-14T03:05:32.656Z,16.34
2022-10-14T03:07:59.468Z,15.72
2022-10-14T03:10:26.354Z,15.79
2022-10-14T03:12:53.345Z,16.70
2022-10-14T03:15:21.088Z,15.84
2022-10-14T03:17:47.944Z,15.54
2022-10-14T03:20:14.798Z,15.85
2022-10-14T03:22:42.171Z,15.85
2022-10-14T03:25:09.514Z,16.33
2022-10-14T03:27:36.372Z,16.28
2022-10-14T03:30:03.781Z,16.30
2022-10-14T03:32:30.653Z,16.17
2022-10-14T03:34:57.917Z,16.12
2022-10-14T03:37:24.801Z,16.19
2022-10-14T03:39:51.635Z,15.83
2022-10-14T03:42:18.675Z,15.91
2022-10-14T03:44:46.427Z,15.23
2022-10-14T03:47:13.285Z,15.47
2022-10-14T03:49:40.109Z,16.10
2022-10-14T03:52:06.940Z,16.24
2022-10-14T03:54:34.093Z,15.62
2022-10-14T03:57:00.941Z,15.26
2022-10-14T03:59:27.779Z,16.19
2022-10-14T04:01:54.629Z,15.19
2022-10-14T04:04:21.554Z,15.18
2022-10-14T04:06:48.381Z,15.39
2022-10-14T04:09:15.326Z,16.21
2022-10-14T04:11:42.308Z,16.09
2022-10-14T04:14:09.525Z,15.60
2022-10-14T04:16:36.432Z,15.95
2022-10-14T04:19:03.605Z,16.16
2022-10-14T04:21:30.469Z,15.61
2022-10-14T04:23:57.306Z,15.44
2022-10-14T04:26:24.155Z,15.44
2022-10-14T04:28:51.310Z,15.46
2022-10-14T04:31:18.237Z,16.30
2022-10-14T04:33:45.075Z,16.55
2022-10-14T04:36:11.925Z,15.93
2022-10-14T04:38:38.753Z,16.19
2022-10-14T04:41:05.680Z,16.24
2022-10-14T04:43:32.552Z,15.68
2022-10-14T04:45:59.387Z,15.66
2022-10-14T04:48:26.248Z,16.23
2022-10-14T04:50:54.136Z,15.52
2022-10-14T04:53:22.252Z,15.10
2022-10-14T04:55:49.893Z,15.01
2022-10-14T04:58:17.196Z,16.03
2022-10-14T05:00:44.123Z,16.11
2022-10-14T05:03:11.062Z,16.32
2022-10-14T05:05:37.945Z,16.55
2022-10-14T05:08:05.016Z,16.05
2022-10-14T05:10:31.994Z,16.03
2022-10-14T05:12:58.820Z,16.09
2022-10-14T05:15:25.682Z,15.62
2022-10-14T05:17:52.519Z,15.59
2022-10-14T05:20:19.458Z,14.91
2022-10-14T05:22:46.278Z,14.68
2022-10-14T05:25:13.123Z,14.91
2022-10-14T05:27:40.481Z,15.15
2022-10-14T05:30:07.900Z,15.30
2022-10-14T05:32:34.707Z,15.61
2022-10-14T05:35:01.600Z,15.80
2022-10-14T05:37:28.471Z,15.97
2022-10-14T05:39:55.442Z,17.14
2022-10-14T05:42:22.542Z,16.96
2022-10-14T05:44:49.810Z,16.99
2022-10-14T05:47:16.871Z,17.00
2022-10-14T05:49:43.695Z,16.33
2022-10-14T05:52:10.516Z,16.35
2022-10-14T05:54:37.404Z,16.80
2022-10-14T05:57:04.380Z,16.75
2022-10-14T05:59:33.437Z,17.37
2022-10-14T06:02:00.432Z,17.37
2022-10-14T06:04:27.555Z,18.35
2022-10-14T06:06:54.423Z,18.87
2022-10-14T06:09:21.279Z,19.05
2022-10-14T06:11:48.460Z,19.43
2022-10-14T06:14:15.339Z,19.93
2022-10-14T06:16:42.213Z,20.42
2022-10-14T06:19:09.073Z,20.90
2022-10-14T06:21:35.864Z,21.11
2022-10-14T06:24:02.703Z,21.52
2022-10-14T06:26:29.531Z,22.19
2022-10-14T06:28:56.481Z,22.62
2022-10-14T06:31:23.389Z,22.85
2022-10-14T06:33:50.384Z,23.24
2022-10-14T06:36:17.289Z,23.31
2022-10-14T06:38:44.153Z,23.58
2022-10-14T06:41:11.222Z,23.94
2022-10-14T06:43:38.242Z,24.38
2022-10-14T06:46:05.724Z,24.62
2022-10-14T06:48:32.596Z,25.20
2022-10-14T06:51:00.372Z,25.33
2022-10-14T06:53:27.982Z,25.30
2022-10-14T06:56:01.945Z,26.12
2022-10-14T06:58:29.221Z,25.54
2022-10-14T07:03:27.977Z,25.19
2022-10-14T07:05:54.963Z,23.42
2022-10-14T07:08:21.802Z,25.18
2022-10-14T07:10:48.787Z,23.79
2022-10-14T07:13:15.613Z,22.15
2022-10-14T07:15:42.561Z,22.21
2022-10-14T07:18:09.399Z,21.61
2022-10-14T07:20:36.310Z,21.52
2022-10-14T07:23:03.206Z,20.46
2022-10-14T07:25:30.046Z,20.40
2022-10-14T07:27:56.944Z,20.83
2022-10-14T07:30:23.891Z,20.83
2022-10-14T07:32:50.751Z,19.22
2022-10-14T07:35:19.149Z,19.16
2022-10-14T07:37:46.647Z,19.60
2022-10-14T07:40:14.161Z,19.39
2022-10-14T07:42:41.067Z,19.11
2022-10-14T07:45:08.497Z,18.98
2022-10-14T07:47:35.401Z,19.61
2022-10-14T07:50:02.378Z,20.47
2022-10-14T07:52:29.205Z,19.94
2022-10-14T07:54:56.071Z,20.20
2022-10-14T07:57:24.097Z,20.81
2022-10-14T07:59:52.774Z,20.10
2022-10-14T08:02:19.778Z,19.77
2022-10-14T08:04:47.018Z,20.41
2022-10-14T08:07:16.638Z,19.86
2022-10-14T08:09:43.705Z,20.70
2022-10-14T08:12:10.699Z,20.78
2022-10-14T08:14:37.920Z,20.83
2022-10-14T08:17:04.959Z,21.07
2022-10-14T08:19:32.095Z,20.03
2022-10-14T08:21:59.195Z,21.86
2022-10-14T08:24:26.098Z,21.63
2022-10-14T08:26:55.166Z,20.88
2022-10-14T08:29:25.753Z,21.95
2022-10-14T08:31:54.335Z,21.24
2022-10-14T08:34:21.966Z,21.18
2022-10-14T08:36:49.143Z,19.96
2022-10-14T08:39:19.444Z,21.01
2022-10-14T08:42:00.678Z,21.70
2022-10-14T08:44:34.564Z,22.52
2022-10-14T08:47:03.134Z,21.53
2022-10-14T08:49:35.879Z,23.14
2022-10-14T08:52:13.013Z,23.35
2022-10-14T08:54:42.149Z,22.61
2022-10-14T08:57:15.056Z,21.64
2022-10-14T08:59:42.634Z,22.38
2022-10-14T09:02:25.729Z,22.71
2022-10-14T09:04:52.570Z,23.08
2022-10-14T09:07:20.267Z,23.62
2022-10-14T09:10:08.289Z,22.21
2022-10-14T09:12:36.053Z,23.44
2022-10-14T09:15:19.818Z,23.15
2022-10-14T09:17:52.903Z,24.12
2022-10-14T09:20:22.455Z,24.02
2022-10-14T09:23:19.537Z,23.25
2022-10-14T09:25:59.031Z,24.60
2022-10-14T09:28:40.761Z,23.23
2022-10-14T09:31:11.568Z,24.04
2022-10-14T09:33:42.628Z,24.01
2022-10-14T09:36:17.673Z,24.82
2022-10-14T09:38:47.485Z,23.70
2022-10-14T09:41:16.821Z,23.91
2022-10-14T09:44:23.948Z,23.60
2022-10-14T09:46:54.206Z,25.61
2022-10-14T09:49:29.954Z,25.38
2022-10-14T09:51:57.790Z,26.42
2022-10-14T09:54:26.684Z,25.32
2022-10-14T09:57:05.571Z,25.72
2022-10-14T09:59:32.858Z,24.59
2022-10-14T10:02:02.144Z,26.16
2022-10-14T10:04:31.952Z,27.14
2022-10-14T10:07:00.713Z,25.53
2022-10-14T10:09:27.933Z,26.51
2022-10-14T10:11:55.410Z,26.07
2022-10-14T10:14:30.849Z,24.60
2022-10-14T10:17:10.102Z,24.78
2022-10-14T10:19:44.867Z,23.70
2022-10-14T10:22:26.733Z,25.92
2022-10-14T10:25:03.653Z,24.73
2022-10-14T10:27:36.733Z,25.17
2022-10-14T10:30:21.708Z,25.75
2022-10-14T10:32:57.198Z,25.61
2022-10-14T10:36:04.327Z,25.74
2022-10-14T10:39:19.075Z,25.06
2022-10-14T10:42:08.243Z,26.58
2022-10-14T10:44:49.636Z,26.73
2022-10-14T10:47:47.792Z,27.12
2022-10-14T10:50:42.605Z,26.51
2022-10-14T10:53:33.902Z,26.58
2022-10-14T10:56:07.364Z,25.33
2022-10-14T10:58:57.802Z,25.28
2022-10-14T11:04:33.688Z,25.52
2022-10-14T11:07:47.862Z,25.60
2022-10-14T11:18:00.967Z,26.76
2022-10-14T11:24:46.282Z,25.97
2022-10-14T11:30:36.807Z,26.14
2022-10-14T11:33:27.920Z,25.27
2022-10-14T11:36:03.685Z,25.25
2022-10-14T11:41:18.987Z,25.59
2022-10-14T11:44:12.613Z,26.49
2022-10-14T11:46:43.174Z,25.58
2022-10-14T11:49:22.729Z,27.06
2022-10-14T11:52:00.058Z,27.01
2022-10-14T11:54:35.652Z,26.89
2022-10-14T11:57:20.443Z,25.15
2022-10-14T11:59:56.043Z,23.91
2022-10-14T12:02:45.077Z,24.78
2022-10-14T12:05:35.237Z,24.16
2022-10-14T12:08:17.344Z,24.13
2022-10-14T12:11:19.534Z,25.00
2022-10-14T12:13:57.222Z,24.84
2022-10-14T12:16:29.299Z,24.89
2022-10-14T12:19:02.174Z,25.38
2022-10-14T12:21:41.042Z,25.26
2022-10-14T12:24:14.123Z,25.22
2022-10-14T12:26:57.187Z,24.23
2022-10-14T12:29:43.338Z,24.37
2022-10-14T12:32:26.410Z,24.89
2022-10-14T12:35:01.549Z,24.92
2022-10-14T12:37:35.480Z,25.07
2022-10-14T12:40:02.610Z,24.88
2022-10-14T12:42:35.452Z,25.20
2022-10-14T12:45:04.769Z,24.08
2022-10-14T12:47:38.635Z,24.09
2022-10-14T12:50:27.359Z,25.56
2022-10-14T12:53:06.782Z,25.11
2022-10-14T12:55:48.006Z,25.08
2022-10-14T12:58:41.480Z,25.03
2022-10-14T13:01:19.995Z,23.91
2022-10-14T13:03:54.384Z,24.48
2022-10-14T13:06:39.461Z,25.03
2022-10-14T13:09:12.764Z,24.21
2022-10-14T13:11:59.498Z,24.26
2022-10-14T13:14:30.029Z,25.43
2022-10-14T13:17:00.885Z,24.73
2022-10-14T13:19:33.672Z,24.94
2022-10-14T13:22:02.321Z,25.09
2022-10-14T13:24:32.116Z,24.03
2022-10-14T13:27:30.924Z,23.85
2022-10-14T13:30:08.163Z,24.53
2022-10-14T13:32:50.300Z,24.87
2022-10-14T13:35:31.340Z,24.63
2022-10-14T13:38:05.395Z,25.64
2022-10-14T13:40:35.515Z,25.09
2022-10-14T13:43:28.785Z,24.88
2022-10-14T13:46:00.492Z,24.89
2022-10-14T13:48:51.022Z,25.07
2022-10-14T13:51:45.023Z,24.49
2022-10-14T13:54:16.158Z,25.26
2022-10-14T13:56:43.431Z,25.28
2022-10-14T13:59:44.400Z,26.26
2022-10-14T14:02:25.839Z,24.42
2022-10-14T14:04:55.809Z,25.14
2022-10-14T14:07:47.805Z,26.07
2022-10-14T14:10:12.797Z,24.75
2022-10-14T14:12:42.864Z,25.48
2022-10-14T14:15:19.274Z,25.39
2022-10-14T14:17:46.079Z,25.44
2022-10-14T14:20:12.938Z,24.60
2022-10-14T14:22:46.317Z,24.52
2022-10-14T14:25:46.763Z,24.13
2022-10-14T14:28:13.822Z,24.12
2022-10-14T14:30:40.659Z,24.01
2022-10-14T14:33:11.461Z,24.76
2022-10-14T14:35:38.351Z,25.38
2022-10-14T14:38:05.185Z,24.27
2022-10-14T14:40:32.242Z,23.28
2022-10-14T14:43:01.338Z,24.07
2022-10-14T14:45:30.981Z,24.99
2022-10-14T14:47:59.302Z,25.00
2022-10-14T14:50:36.399Z,25.44
2022-10-14T14:53:06.903Z,25.25
2022-10-14T14:55:37.669Z,25.36
2022-10-14T14:58:06.889Z,25.08
2022-10-14T15:00:33.762Z,25.66
2022-10-14T15:03:02.339Z,25.07
2022-10-14T15:05:30.121Z,25.85
2022-10-14T15:07:57.230Z,26.10
2022-10-14T15:10:29.867Z,26.24
2022-10-14T15:12:58.540Z,25.42
2022-10-14T15:15:32.408Z,25.71
2022-10-14T15:18:20.562Z,26.07
2022-10-14T15:20:49.547Z,25.99
2022-10-14T15:23:50.598Z,26.12
2022-10-14T15:26:22.926Z,25.92
2022-10-14T15:29:14.865Z,25.94
2022-10-14T15:31:47.669Z,26.33
2022-10-14T15:34:22.635Z,26.10
2022-10-14T15:36:51.202Z,25.98
2022-10-14T15:39:18.602Z,26.46
2022-10-14T15:41:48.068Z,26.86
2022-10-14T15:44:15.252Z,26.18
2022-10-14T15:47:02.304Z,25.67
2022-10-14T15:49:32.033Z,26.29
2022-10-14T15:51:59.013Z,25.49
2022-10-14T15:54:27.759Z,25.30
2022-10-14T15:59:27.796Z,24.91
2022-10-14T16:01:54.870Z,25.37
2022-10-14T16:04:24.979Z,25.61
2022-10-14T16:06:55.386Z,25.67
2022-10-14T16:09:27.827Z,25.28
2022-10-14T16:11:57.650Z,24.37
2022-10-14T16:14:25.412Z,23.16
2022-10-14T16:16:52.263Z,21.82
2022-10-14T16:19:19.813Z,21.49
2022-10-14T16:21:48.029Z,23.09
2022-10-14T16:24:20.443Z,23.77
2022-10-14T16:26:51.446Z,24.09
2022-10-14T16:29:19.732Z,24.75
2022-10-14T16:31:50.313Z,24.13
2022-10-14T16:34:21.262Z,24.17
2022-10-14T16:36:51.406Z,23.42
2022-10-14T16:39:19.544Z,23.27
2022-10-14T16:41:46.539Z,23.43
2022-10-14T16:44:33.655Z,23.12
2022-10-14T16:47:20.330Z,22.98
2022-10-14T16:49:49.367Z,22.53
2022-10-14T16:52:16.570Z,22.94
2022-10-14T16:54:43.445Z,23.25
2022-10-14T16:57:10.821Z,22.80
2022-10-14T16:59:37.737Z,22.46
2022-10-14T17:02:05.257Z,22.09
2022-10-14T17:04:32.134Z,21.81
2022-10-14T17:06:59.046Z,22.28
2022-10-14T17:11:57.542Z,21.56
2022-10-14T17:14:24.425Z,21.19
2022-10-14T17:16:52.661Z,21.30
2022-10-14T17:19:19.984Z,21.24
2022-10-14T17:21:47.457Z,21.09
2022-10-14T17:24:15.222Z,20.54
2022-10-14T17:26:42.044Z,20.44
2022-10-14T17:29:08.917Z,20.28
2022-10-14T17:31:38.005Z,20.24
2022-10-14T17:34:05.195Z,20.40
2022-10-14T17:36:32.085Z,20.37
2022-10-14T17:38:59.463Z,19.87
2022-10-14T17:41:28.903Z,19.24
2022-10-14T17:43:57.892Z,19.90
2022-10-14T17:46:26.327Z,20.59
2022-10-14T17:48:56.319Z,20.02
2022-10-14T17:51:25.615Z,19.62
2022-10-14T17:53:57.184Z,19.52
2022-10-14T17:56:24.939Z,19.53
2022-10-14T17:58:54.949Z,19.75
2022-10-14T18:01:36.705Z,19.42
2022-10-14T18:04:09.297Z,19.86
2022-10-14T18:06:37.605Z,19.13
2022-10-14T18:09:08.107Z,19.33
2022-10-14T18:12:07.191Z,19.27
2022-10-14T18:14:27.678Z,19.12
2022-10-14T18:16:54.522Z,20.03
2022-10-14T18:19:21.412Z,19.94
2022-10-14T18:21:48.307Z,19.84
2022-10-14T18:24:15.184Z,19.31
2022-10-14T18:26:42.150Z,19.53
2022-10-14T18:29:09.422Z,19.68
2022-10-14T18:31:36.920Z,19.74
2022-10-14T18:34:03.875Z,19.80
2022-10-14T18:36:33.259Z,19.72
2022-10-14T18:39:03.164Z,19.99
2022-10-14T18:41:30.905Z,19.84
2022-10-14T18:44:00.415Z,19.51
2022-10-14T18:46:29.874Z,20.08
2022-10-14T18:48:58.092Z,19.85
2022-10-14T18:51:29.499Z,19.57
2022-10-14T18:53:58.357Z,19.16
2022-10-14T18:56:28.072Z,19.86
2022-10-14T18:58:57.842Z,20.06
2022-10-14T19:01:26.520Z,19.82
2022-10-14T19:03:54.154Z,19.05
2022-10-14T19:06:21.588Z,18.67
2022-10-14T19:08:48.968Z,18.34
2022-10-14T19:11:20.429Z,18.28
2022-10-14T19:13:48.748Z,17.97
2022-10-14T19:16:21.534Z,17.61
2022-10-14T19:18:52.970Z,18.25
2022-10-14T19:21:22.332Z,18.36
2022-10-14T19:23:50.222Z,18.56
2022-10-14T19:26:22.137Z,18.55
2022-10-14T19:28:50.058Z,18.88
2022-10-14T19:31:22.968Z,19.27
2022-10-14T19:33:49.863Z,19.41
2022-10-14T19:36:18.306Z,19.31
2022-10-14T19:38:52.363Z,19.02
2022-10-14T19:41:19.314Z,18.52
2022-10-14T19:43:46.162Z,18.59
2022-10-14T19:46:14.503Z,18.24
2022-10-14T19:48:41.791Z,19.07
2022-10-14T19:51:12.052Z,18.16
2022-10-14T19:53:39.353Z,18.24
2022-10-14T19:56:11.980Z,19.11
2022-10-14T19:58:42.317Z,18.18
2022-10-14T20:01:16.883Z,18.61
2022-10-14T20:03:44.097Z,18.86
2022-10-14T20:06:12.265Z,18.65
2022-10-14T20:08:39.680Z,18.71
2022-10-14T20:11:08.441Z,18.77
2022-10-14T20:13:35.593Z,18.04
2022-10-14T20:16:02.722Z,18.09
2022-10-14T20:18:30.250Z,17.49
2022-10-14T20:20:57.478Z,17.83
2022-10-14T20:23:25.414Z,17.07
2022-10-14T20:25:52.313Z,17.14
2022-10-14T20:28:19.865Z,16.96
2022-10-14T20:30:48.071Z,17.25
2022-10-14T20:33:15.252Z,17.22
2022-10-14T20:35:42.063Z,17.57
2022-10-14T20:38:08.900Z,17.63
2022-10-14T20:40:35.928Z,17.28
2022-10-14T20:43:04.065Z,17.33
2022-10-14T20:45:30.978Z,17.77
2022-10-14T20:47:57.798Z,17.81
2022-10-14T20:50:24.640Z,17.64
2022-10-14T20:52:51.476Z,18.10
2022-10-14T20:55:18.338Z,17.74
2022-10-14T20:57:45.204Z,17.86
2022-10-14T21:00:12.767Z,18.05
2022-10-14T21:02:39.699Z,17.40
2022-10-14T21:05:06.837Z,18.15
2022-10-14T21:07:33.678Z,18.40
2022-10-14T21:10:00.978Z,17.88
2022-10-14T21:12:27.831Z,18.50
2022-10-14T21:14:54.690Z,17.59
2022-10-14T21:17:21.519Z,17.80
2022-10-14T21:19:49.081Z,17.72
2022-10-14T21:22:15.963Z,17.49
2022-10-14T21:24:42.881Z,17.51
2022-10-14T21:27:09.944Z,17.53
2022-10-14T21:29:36.857Z,17.25
2022-10-14T21:32:03.915Z,17.00
2022-10-14T21:34:30.762Z,17.34
2022-10-14T21:36:57.698Z,17.59
2022-10-14T21:39:24.641Z,17.15
2022-10-14T21:41:52.258Z,16.87
2022-10-14T21:44:20.817Z,17.43
2022-10-14T21:46:47.907Z,15.81
2022-10-14T21:49:15.933Z,16.82
2022-10-14T21:51:42.826Z,16.64
2022-10-14T21:54:12.393Z,17.42
2022-10-14T21:56:39.608Z,17.52
2022-10-14T21:59:06.911Z,17.52
2022-10-14T22:01:33.828Z,18.02
2022-10-14T22:04:05.944Z,17.81
2022-10-14T22:06:34.341Z,17.35
2022-10-14T22:09:02.781Z,17.78
2022-10-14T22:11:32.908Z,17.49
2022-10-14T22:14:01.516Z,17.36
2022-10-14T22:16:29.399Z,17.94
2022-10-14T22:18:59.060Z,17.64
2022-10-14T22:21:27.117Z,17.82
2022-10-14T22:23:54.294Z,17.74
2022-10-14T22:26:23.779Z,17.83
2022-10-14T22:28:57.423Z,17.57
2022-10-14T22:31:24.575Z,16.83
2022-10-14T22:33:51.424Z,16.72
2022-10-14T22:36:24.375Z,16.89
2022-10-14T22:38:52.807Z,16.74
2022-10-14T22:41:19.849Z,16.00
2022-10-14T22:43:51.774Z,16.67
2022-10-14T22:46:20.559Z,16.29
2022-10-14T22:48:48.862Z,16.70
2022-10-14T22:51:18.001Z,17.61
2022-10-14T22:53:45.740Z,17.19
2022-10-14T22:56:15.533Z,16.41
2022-10-14T22:58:42.558Z,16.48
2022-10-14T23:01:11.980Z,16.64
2022-10-14T23:03:38.862Z,16.59
2022-10-14T23:06:07.535Z,16.63
2022-10-14T23:08:35.445Z,15.99
2022-10-14T23:11:03.327Z,16.47
2022-10-14T23:13:30.412Z,16.09
2022-10-14T23:16:05.381Z,16.10
2022-10-14T23:18:34.768Z,15.24
2022-10-14T23:21:13.174Z,15.58
2022-10-14T23:23:40.414Z,14.64
2022-10-14T23:26:11.544Z,15.34
2022-10-14T23:28:38.752Z,16.27
2022-10-14T23:31:13.830Z,15.33
2022-10-14T23:33:40.847Z,15.80
2022-10-14T23:36:10.367Z,16.65
2022-10-14T23:38:37.905Z,17.48
2022-10-14T23:41:05.947Z,17.14
2022-10-14T23:43:33.173Z,16.61
2022-10-14T23:46:01.030Z,17.04
2022-10-14T23:48:28.133Z,16.69
2022-10-14T23:50:55.433Z,16.15
2022-10-14T23:53:22.699Z,16.08
2022-10-14T23:55:49.541Z,16.17
2022-10-14T23:58:16.466Z,16.58
